الصفحة الرئيسية
METAR-TAF:

METAR-TAF

مطار :

بالما دي مايوركا, إسبانيا

مطار بالما دي مايوركا

دائرة عرض: 39-33N, خط طول: 002-44E, ارتفاع: 4 متر

مراقبة الطقس الحالي

تاريخ ووقت الإصدار 24 دقيقة قبل الساعة 18:00UTC
ريح 3 عقدة من الشمال الغربي, الاتجاه يتراوح بين الغرب/الجنوب الغربي و الشمال
درجة الحرارة 13°درجة مئوية
الرطوبة 67%
ضغط 1020 hPa
الرؤية 10 كم أو أكثر
غيوم قليلة على ارتفاع 2600 قدم
غيوم متفرقة على ارتفاع 5800 قدم

METAR: LEPA 181800Z 32003KT 250V010 9999 FEW026 SCT058 13/07 Q1020 NOSIG

زمن: 19:24 (18:24 UTC)

توقعات

تاريخ ووقت الإصدار 1ساعة و 24 دقيقة قبل الساعة 17:00UTC
التوقعات صالحة من18 الساعة 18 UTC إلى 19 الساعة 18 UTC
ريح 4 عقدةمن اتجاهات متغيرة
الرؤية 10 كم أو أكثر
غيوم قليلة على ارتفاع 2000 قدم
غيوم متفرقة على ارتفاع 4000 قدم
نظرية الاحتمالات 40% :
مؤقت
من 19 الساعة 00 UTC إلى 19 الساعة 09 UTC
الرؤية: 4000 متر
غيوم متفرقة على ارتفاع 1000 قدم
غشاء
أصبح
من 19 الساعة 09 UTC إلى 19 الساعة 11 UTC
ريح 10 عقدة من الجنوب الغربي

TAF: LEPA 181700Z 1818/1918 VRB04KT 9999 FEW020 SCT040 TX14/1913Z TN05/1906Z PROB40 TEMPO 1900/1909 4000 BR SCT010 BECMG 1909/1911 22010KT

أرصاد الطقس والتوقعات من أكثر من 4000 مطار (تقارير الطقس للمطار METAR والتنبؤ بالطقس بالمطارTAF).

المحطات المتاحة هي النقط الصفراء والحمراء على الخريطة.

حرك المؤشر فوق النقطة لمعرفة اسم المحطة.

ثم انقر لمعرفة أرصاد وتوقعات الطقس.

لتغيير الخارطة: اضغط على الأزرار الخضراء مع رمز الصليب الأسود للتكبير. على الزر الأخضر مع شرطة للتصغير، أو على الأسهم الخضراء للخرائط المجاورة.


METAR-TAF: